sensor_id;sensor_type;location;lat;lon;timestamp;temperature;humidity
23717;DHT22;22094;52.130;5.598;2023-03-01T00:01:13;-3.00;99.90
23717;DHT22;22094;52.130;5.598;2023-03-01T00:03:39;-3.10;99.90
23717;DHT22;22094;52.130;5.598;2023-03-01T00:06:05;-3.10;99.90
23717;DHT22;22094;52.130;5.598;2023-03-01T00:08:32;-3.10;99.90
23717;DHT22;22094;52.130;5.598;2023-03-01T00:11:07;-3.20;99.90
23717;DHT22;22094;52.130;5.598;2023-03-01T00:13:34;-3.20;99.90
23717;DHT22;22094;52.130;5.598;2023-03-01T00:16:05;-3.30;99.90
23717;DHT22;22094;52.130;5.598;2023-03-01T00:18:31;-3.30;99.90
23717;DHT22;22094;52.130;5.598;2023-03-01T00:20:56;-3.40;99.90
23717;DHT22;22094;52.130;5.598;2023-03-01T00:23:23;-3.30;99.90
23717;DHT22;22094;52.130;5.598;2023-03-01T00:25:49;-3.40;99.90
23717;DHT22;22094;52.130;5.598;2023-03-01T00:28:15;-3.30;99.90
23717;DHT22;22094;52.130;5.598;2023-03-01T00:30:41;-3.40;99.90
23717;DHT22;22094;52.130;5.598;2023-03-01T00:33:07;-3.40;99.90
23717;DHT22;22094;52.130;5.598;2023-03-01T00:35:33;-3.40;99.90
23717;DHT22;22094;52.130;5.598;2023-03-01T00:37:59;-3.40;99.90
23717;DHT22;22094;52.130;5.598;2023-03-01T00:40:26;-3.40;99.90
23717;DHT22;22094;52.130;5.598;2023-03-01T00:42:52;-3.50;99.90
23717;DHT22;22094;52.130;5.598;2023-03-01T00:45:18;-3.60;99.90
23717;DHT22;22094;52.130;5.598;2023-03-01T00:47:43;-3.70;99.90
23717;DHT22;22094;52.130;5.598;2023-03-01T00:50:10;-3.70;99.90
23717;DHT22;22094;52.130;5.598;2023-03-01T00:52:37;-3.80;99.90
23717;DHT22;22094;52.130;5.598;2023-03-01T00:55:03;-3.80;99.90
23717;DHT22;22094;52.130;5.598;2023-03-01T00:57:29;-3.80;99.90
23717;DHT22;22094;52.130;5.598;2023-03-01T00:59:55;-3.80;99.90
23717;DHT22;22094;52.130;5.598;2023-03-01T01:02:20;-3.80;99.90
23717;DHT22;22094;52.130;5.598;2023-03-01T01:04:46;-3.90;99.90
23717;DHT22;22094;52.130;5.598;2023-03-01T01:07:12;-3.90;99.90
23717;DHT22;22094;52.130;5.598;2023-03-01T01:09:38;-4.00;99.90
23717;DHT22;22094;52.130;5.598;2023-03-01T01:12:04;-3.90;99.90
23717;DHT22;22094;52.130;5.598;2023-03-01T01:14:30;-3.90;99.90
23717;DHT22;22094;52.130;5.598;2023-03-01T01:16:56;-4.00;99.90
23717;DHT22;22094;52.130;5.598;2023-03-01T01:19:22;-4.10;99.90
23717;DHT22;22094;52.130;5.598;2023-03-01T01:21:48;-4.10;99.90
23717;DHT22;22094;52.130;5.598;2023-03-01T01:24:14;-4.10;99.90
23717;DHT22;22094;52.130;5.598;2023-03-01T01:26:40;-4.10;99.90
23717;DHT22;22094;52.130;5.598;2023-03-01T01:29:07;-4.20;99.90
23717;DHT22;22094;52.130;5.598;2023-03-01T01:31:34;-4.20;99.90
23717;DHT22;22094;52.130;5.598;2023-03-01T01:34:01;-4.20;99.90
23717;DHT22;22094;52.130;5.598;2023-03-01T01:36:27;-4.20;99.90
23717;DHT22;22094;52.130;5.598;2023-03-01T01:38:53;-4.20;99.90
23717;DHT22;22094;52.130;5.598;2023-03-01T01:41:20;-4.10;99.90
23717;DHT22;22094;52.130;5.598;2023-03-01T01:46:40;-4.20;99.90
23717;DHT22;22094;52.130;5.598;2023-03-01T01:49:59;-4.30;99.90
23717;DHT22;22094;52.130;5.598;2023-03-01T01:52:25;-4.30;99.90
23717;DHT22;22094;52.130;5.598;2023-03-01T01:57:59;-4.20;99.90
23717;DHT22;22094;52.130;5.598;2023-03-01T02:00:29;-4.30;99.90
23717;DHT22;22094;52.130;5.598;2023-03-01T02:02:59;-4.40;99.90
23717;DHT22;22094;52.130;5.598;2023-03-01T02:05:49;-4.40;99.90
23717;DHT22;22094;52.130;5.598;2023-03-01T02:08:18;-4.40;99.90
23717;DHT22;22094;52.130;5.598;2023-03-01T02:10:45;-4.30;99.90
23717;DHT22;22094;52.130;5.598;2023-03-01T02:13:12;-4.40;99.90
23717;DHT22;22094;52.130;5.598;2023-03-01T02:15:39;-4.40;99.90
23717;DHT22;22094;52.130;5.598;2023-03-01T02:18:06;-4.50;99.90
23717;DHT22;22094;52.130;5.598;2023-03-01T02:20:40;-4.50;99.90
23717;DHT22;22094;52.130;5.598;2023-03-01T02:23:10;-4.20;99.90
23717;DHT22;22094;52.130;5.598;2023-03-01T02:25:59;-4.50;99.90
23717;DHT22;22094;52.130;5.598;2023-03-01T02:28:31;-4.70;99.90
23717;DHT22;22094;52.130;5.598;2023-03-01T02:30:57;-4.80;99.90
23717;DHT22;22094;52.130;5.598;2023-03-01T02:34:02;-4.90;99.90
23717;DHT22;22094;52.130;5.598;2023-03-01T02:36:50;-5.10;99.90
23717;DHT22;22094;52.130;5.598;2023-03-01T02:39:23;-4.90;99.90
23717;DHT22;22094;52.130;5.598;2023-03-01T02:41:52;-4.90;99.90
23717;DHT22;22094;52.130;5.598;2023-03-01T02:44:18;-4.80;99.90
23717;DHT22;22094;52.130;5.598;2023-03-01T02:46:50;-4.90;99.90
23717;DHT22;22094;52.130;5.598;2023-03-01T02:49:23;-4.80;99.90
23717;DHT22;22094;52.130;5.598;2023-03-01T02:52:07;-4.80;99.90
23717;DHT22;22094;52.130;5.598;2023-03-01T02:54:56;-4.70;99.90
23717;DHT22;22094;52.130;5.598;2023-03-01T02:57:27;-4.80;99.90
23717;DHT22;22094;52.130;5.598;2023-03-01T02:59:55;-4.60;99.90
23717;DHT22;22094;52.130;5.598;2023-03-01T03:02:25;-4.60;99.90
23717;DHT22;22094;52.130;5.598;2023-03-01T03:05:09;-4.60;99.90
23717;DHT22;22094;52.130;5.598;2023-03-01T03:07:37;-4.70;99.90
23717;DHT22;22094;52.130;5.598;2023-03-01T03:10:07;-4.80;99.90
23717;DHT22;22094;52.130;5.598;2023-03-01T03:12:33;-4.80;99.90
23717;DHT22;22094;52.130;5.598;2023-03-01T03:14:58;-4.80;99.90
23717;DHT22;22094;52.130;5.598;2023-03-01T03:17:24;-4.80;99.90
23717;DHT22;22094;52.130;5.598;2023-03-01T03:19:49;-4.80;99.90
23717;DHT22;22094;52.130;5.598;2023-03-01T03:22:15;-4.80;99.90
23717;DHT22;22094;52.130;5.598;2023-03-01T03:24:41;-4.80;99.90
23717;DHT22;22094;52.130;5.598;2023-03-01T03:27:07;-4.80;99.90
23717;DHT22;22094;52.130;5.598;2023-03-01T03:29:32;-4.80;99.90
23717;DHT22;22094;52.130;5.598;2023-03-01T03:31:58;-4.70;99.90
23717;DHT22;22094;52.130;5.598;2023-03-01T03:34:24;-4.70;99.90
23717;DHT22;22094;52.130;5.598;2023-03-01T03:36:53;-4.70;99.90
23717;DHT22;22094;52.130;5.598;2023-03-01T03:39:26;-4.60;99.90
23717;DHT22;22094;52.130;5.598;2023-03-01T03:41:52;-4.70;99.90
23717;DHT22;22094;52.130;5.598;2023-03-01T03:44:18;-4.70;99.90
23717;DHT22;22094;52.130;5.598;2023-03-01T03:46:44;-4.70;99.90
23717;DHT22;22094;52.130;5.598;2023-03-01T03:49:10;-4.80;99.90
23717;DHT22;22094;52.130;5.598;2023-03-01T03:51:35;-4.80;99.90
23717;DHT22;22094;52.130;5.598;2023-03-01T03:54:01;-4.90;99.90
23717;DHT22;22094;52.130;5.598;2023-03-01T03:56:26;-5.10;99.90
23717;DHT22;22094;52.130;5.598;2023-03-01T03:58:52;-5.20;99.90
23717;DHT22;22094;52.130;5.598;2023-03-01T04:01:18;-5.20;99.90
23717;DHT22;22094;52.130;5.598;2023-03-01T04:03:44;-5.00;99.90
23717;DHT22;22094;52.130;5.598;2023-03-01T04:06:13;-5.30;99.90
23717;DHT22;22094;52.130;5.598;2023-03-01T04:08:39;-5.40;99.90
23717;DHT22;22094;52.130;5.598;2023-03-01T04:11:05;-5.30;99.90
23717;DHT22;22094;52.130;5.598;2023-03-01T04:13:51;-5.40;99.90
23717;DHT22;22094;52.130;5.598;2023-03-01T04:16:17;-5.40;99.90
23717;DHT22;22094;52.130;5.598;2023-03-01T04:18:43;-5.50;99.90
23717;DHT22;22094;52.130;5.598;2023-03-01T04:21:09;-5.50;99.90
23717;DHT22;22094;52.130;5.598;2023-03-01T04:23:35;-5.50;99.90
23717;DHT22;22094;52.130;5.598;2023-03-01T04:26:01;-5.50;99.90
23717;DHT22;22094;52.130;5.598;2023-03-01T04:28:27;-5.60;99.90
23717;DHT22;22094;52.130;5.598;2023-03-01T04:30:55;-5.70;99.90
23717;DHT22;22094;52.130;5.598;2023-03-01T04:33:21;-5.80;99.90
23717;DHT22;22094;52.130;5.598;2023-03-01T04:35:48;-5.70;99.90
23717;DHT22;22094;52.130;5.598;2023-03-01T04:38:20;-5.70;99.90
23717;DHT22;22094;52.130;5.598;2023-03-01T04:40:46;-5.60;99.90
23717;DHT22;22094;52.130;5.598;2023-03-01T04:43:14;-5.60;99.90
23717;DHT22;22094;52.130;5.598;2023-03-01T04:45:40;-5.40;99.90
23717;DHT22;22094;52.130;5.598;2023-03-01T04:48:06;-5.30;99.90
23717;DHT22;22094;52.130;5.598;2023-03-01T04:50:32;-4.80;99.90
23717;DHT22;22094;52.130;5.598;2023-03-01T04:52:57;-5.10;99.90
23717;DHT22;22094;52.130;5.598;2023-03-01T04:55:27;-5.00;99.90
23717;DHT22;22094;52.130;5.598;2023-03-01T04:57:53;-5.00;99.90
23717;DHT22;22094;52.130;5.598;2023-03-01T05:00:19;-5.00;99.90
23717;DHT22;22094;52.130;5.598;2023-03-01T05:02:50;-5.00;99.90
23717;DHT22;22094;52.130;5.598;2023-03-01T05:05:20;-5.00;99.90
23717;DHT22;22094;52.130;5.598;2023-03-01T05:07:46;-5.00;99.90
23717;DHT22;22094;52.130;5.598;2023-03-01T05:10:11;-5.10;99.90
23717;DHT22;22094;52.130;5.598;2023-03-01T05:12:37;-5.20;99.90
23717;DHT22;22094;52.130;5.598;2023-03-01T05:15:03;-5.30;99.90
23717;DHT22;22094;52.130;5.598;2023-03-01T05:17:33;-5.30;99.90
23717;DHT22;22094;52.130;5.598;2023-03-01T05:19:58;-5.40;99.90
23717;DHT22;22094;52.130;5.598;2023-03-01T05:22:25;-5.60;99.90
23717;DHT22;22094;52.130;5.598;2023-03-01T05:24:50;-5.50;99.90
23717;DHT22;22094;52.130;5.598;2023-03-01T05:27:16;-5.50;99.90
23717;DHT22;22094;52.130;5.598;2023-03-01T05:29:41;-5.50;99.90
23717;DHT22;22094;52.130;5.598;2023-03-01T05:32:07;-5.50;99.90
23717;DHT22;22094;52.130;5.598;2023-03-01T05:34:35;-5.40;99.90
23717;DHT22;22094;52.130;5.598;2023-03-01T05:37:02;-5.40;99.90
23717;DHT22;22094;52.130;5.598;2023-03-01T05:39:29;-5.40;99.90
23717;DHT22;22094;52.130;5.598;2023-03-01T05:41:56;-5.50;99.90
23717;DHT22;22094;52.130;5.598;2023-03-01T05:44:23;-5.50;99.90
23717;DHT22;22094;52.130;5.598;2023-03-01T05:46:49;-5.50;99.90
23717;DHT22;22094;52.130;5.598;2023-03-01T05:49:15;-5.40;99.90
23717;DHT22;22094;52.130;5.598;2023-03-01T05:51:42;-5.50;99.90
23717;DHT22;22094;52.130;5.598;2023-03-01T05:54:09;-5.40;99.90
23717;DHT22;22094;52.130;5.598;2023-03-01T05:56:35;-5.30;99.90
23717;DHT22;22094;52.130;5.598;2023-03-01T05:59:01;-5.20;99.90
23717;DHT22;22094;52.130;5.598;2023-03-01T06:01:27;-5.20;99.90
23717;DHT22;22094;52.130;5.598;2023-03-01T06:03:53;-5.20;99.90
23717;DHT22;22094;52.130;5.598;2023-03-01T06:06:19;-5.20;99.90
23717;DHT22;22094;52.130;5.598;2023-03-01T06:08:44;-5.20;99.90
23717;DHT22;22094;52.130;5.598;2023-03-01T06:11:10;-5.30;99.90
23717;DHT22;22094;52.130;5.598;2023-03-01T06:13:35;-5.40;99.90
23717;DHT22;22094;52.130;5.598;2023-03-01T06:16:04;-5.50;99.90
23717;DHT22;22094;52.130;5.598;2023-03-01T06:18:30;-5.60;99.90
23717;DHT22;22094;52.130;5.598;2023-03-01T06:20:56;-5.60;99.90
23717;DHT22;22094;52.130;5.598;2023-03-01T06:23:23;-5.70;99.90
23717;DHT22;22094;52.130;5.598;2023-03-01T06:25:49;-5.80;99.90
23717;DHT22;22094;52.130;5.598;2023-03-01T06:28:14;-5.80;99.90
23717;DHT22;22094;52.130;5.598;2023-03-01T06:30:40;-5.90;99.90
23717;DHT22;22094;52.130;5.598;2023-03-01T06:33:06;-5.80;99.90
23717;DHT22;22094;52.130;5.598;2023-03-01T06:35:32;-5.80;99.90
23717;DHT22;22094;52.130;5.598;2023-03-01T06:37:59;-5.80;99.90
23717;DHT22;22094;52.130;5.598;2023-03-01T06:40:25;-5.80;99.90
23717;DHT22;22094;52.130;5.598;2023-03-01T06:42:51;-5.70;99.90
23717;DHT22;22094;52.130;5.598;2023-03-01T06:45:18;-5.80;99.90
23717;DHT22;22094;52.130;5.598;2023-03-01T06:47:44;-5.70;99.90
23717;DHT22;22094;52.130;5.598;2023-03-01T06:50:10;-5.70;99.90
23717;DHT22;22094;52.130;5.598;2023-03-01T06:52:37;-5.70;99.90
23717;DHT22;22094;52.130;5.598;2023-03-01T06:55:04;-5.50;99.90
23717;DHT22;22094;52.130;5.598;2023-03-01T06:57:29;-5.50;99.90
23717;DHT22;22094;52.130;5.598;2023-03-01T06:59:55;-5.60;99.90
23717;DHT22;22094;52.130;5.598;2023-03-01T07:02:21;-5.40;99.90
23717;DHT22;22094;52.130;5.598;2023-03-01T07:04:49;-5.30;99.90
23717;DHT22;22094;52.130;5.598;2023-03-01T07:07:15;-5.30;99.90
23717;DHT22;22094;52.130;5.598;2023-03-01T07:09:41;-5.30;99.90
23717;DHT22;22094;52.130;5.598;2023-03-01T07:12:07;-5.20;99.90
23717;DHT22;22094;52.130;5.598;2023-03-01T07:14:33;-5.20;99.90
23717;DHT22;22094;52.130;5.598;2023-03-01T07:16:59;-5.10;99.90
23717;DHT22;22094;52.130;5.598;2023-03-01T07:19:24;-4.90;99.90
23717;DHT22;22094;52.130;5.598;2023-03-01T07:21:50;-5.10;99.90
23717;DHT22;22094;52.130;5.598;2023-03-01T07:24:15;-4.90;99.90
23717;DHT22;22094;52.130;5.598;2023-03-01T07:26:41;-4.20;99.90
23717;DHT22;22094;52.130;5.598;2023-03-01T07:29:09;-4.80;99.90
23717;DHT22;22094;52.130;5.598;2023-03-01T07:31:35;-4.80;99.90
23717;DHT22;22094;52.130;5.598;2023-03-01T07:36:27;-4.80;99.90
23717;DHT22;22094;52.130;5.598;2023-03-01T07:38:53;-4.70;99.90
23717;DHT22;22094;52.130;5.598;2023-03-01T07:41:18;-4.20;99.90
23717;DHT22;22094;52.130;5.598;2023-03-01T07:43:44;-7.40;99.90
23717;DHT22;22094;52.130;5.598;2023-03-01T07:46:10;-4.10;99.90
23717;DHT22;22094;52.130;5.598;2023-03-01T07:48:35;-4.10;99.90
23717;DHT22;22094;52.130;5.598;2023-03-01T07:51:05;-3.40;99.90
23717;DHT22;22094;52.130;5.598;2023-03-01T07:53:32;-3.70;99.90
23717;DHT22;22094;52.130;5.598;2023-03-01T07:56:17;-3.40;99.90
23717;DHT22;22094;52.130;5.598;2023-03-01T07:58:44;-2.40;99.90
23717;DHT22;22094;52.130;5.598;2023-03-01T08:01:12;-2.80;99.90
23717;DHT22;22094;52.130;5.598;2023-03-01T08:03:38;-2.80;99.90
23717;DHT22;22094;52.130;5.598;2023-03-01T08:06:05;-2.20;99.90
23717;DHT22;22094;52.130;5.598;2023-03-01T08:08:32;-2.20;99.90
23717;DHT22;22094;52.130;5.598;2023-03-01T08:10:58;-2.20;99.90
23717;DHT22;22094;52.130;5.598;2023-03-01T08:13:25;-1.60;99.90
23717;DHT22;22094;52.130;5.598;2023-03-01T08:15:50;1.30;99.90
23717;DHT22;22094;52.130;5.598;2023-03-01T08:18:17;-1.30;99.90
23717;DHT22;22094;52.130;5.598;2023-03-01T08:25:34;-0.50;99.90
23717;DHT22;22094;52.130;5.598;2023-03-01T08:28:00;-2.40;99.90
23717;DHT22;22094;52.130;5.598;2023-03-01T08:30:26;-2.30;99.90
23717;DHT22;22094;52.130;5.598;2023-03-01T08:32:51;-2.50;99.90
23717;DHT22;22094;52.130;5.598;2023-03-01T08:35:17;-1.30;99.90
23717;DHT22;22094;52.130;5.598;2023-03-01T08:40:10;-1.20;99.90
23717;DHT22;22094;52.130;5.598;2023-03-01T08:42:37;-0.80;99.90
23717;DHT22;22094;52.130;5.598;2023-03-01T08:45:03;-1.60;99.90
23717;DHT22;22094;52.130;5.598;2023-03-01T08:47:29;1.30;99.90
23717;DHT22;22094;52.130;5.598;2023-03-01T08:49:54;0.90;99.90
23717;DHT22;22094;52.130;5.598;2023-03-01T08:52:21;4.00;99.90
23717;DHT22;22094;52.130;5.598;2023-03-01T08:54:48;2.20;99.90
23717;DHT22;22094;52.130;5.598;2023-03-01T08:59:40;2.80;99.90
23717;DHT22;22094;52.130;5.598;2023-03-01T09:02:11;1.60;99.90
23717;DHT22;22094;52.130;5.598;2023-03-01T09:04:37;3.60;99.90
23717;DHT22;22094;52.130;5.598;2023-03-01T09:09:28;2.20;99.90
23717;DHT22;22094;52.130;5.598;2023-03-01T09:14:20;3.10;99.90
23717;DHT22;22094;52.130;5.598;2023-03-01T09:16:45;3.20;99.90
23717;DHT22;22094;52.130;5.598;2023-03-01T09:19:12;3.60;99.90
23717;DHT22;22094;52.130;5.598;2023-03-01T09:21:38;3.60;99.90
23717;DHT22;22094;52.130;5.598;2023-03-01T09:24:03;5.80;99.90
23717;DHT22;22094;52.130;5.598;2023-03-01T09:26:29;6.80;99.90
23717;DHT22;22094;52.130;5.598;2023-03-01T09:28:55;3.90;99.90
23717;DHT22;22094;52.130;5.598;2023-03-01T09:31:22;4.00;99.90
23717;DHT22;22094;52.130;5.598;2023-03-01T09:38:43;4.30;99.90
23717;DHT22;22094;52.130;5.598;2023-03-01T09:41:21;4.40;99.90
23717;DHT22;22094;52.130;5.598;2023-03-01T09:43:55;4.50;99.90
23717;DHT22;22094;52.130;5.598;2023-03-01T09:46:24;4.70;99.90
23717;DHT22;22094;52.130;5.598;2023-03-01T09:48:54;4.40;99.90
23717;DHT22;22094;52.130;5.598;2023-03-01T09:51:32;2.70;99.90
23717;DHT22;22094;52.130;5.598;2023-03-01T09:54:02;4.70;99.90
23717;DHT22;22094;52.130;5.598;2023-03-01T09:56:59;4.60;99.90
23717;DHT22;22094;52.130;5.598;2023-03-01T09:59:38;5.50;99.90
23717;DHT22;22094;52.130;5.598;2023-03-01T10:02:16;4.90;99.90
23717;DHT22;22094;52.130;5.598;2023-03-01T10:04:51;4.80;99.90
23717;DHT22;22094;52.130;5.598;2023-03-01T10:07:32;5.10;99.90
23717;DHT22;22094;52.130;5.598;2023-03-01T10:10:06;5.10;99.90
23717;DHT22;22094;52.130;5.598;2023-03-01T10:12:39;5.00;99.90
23717;DHT22;22094;52.130;5.598;2023-03-01T10:20:24;5.20;99.90
23717;DHT22;22094;52.130;5.598;2023-03-01T10:22:51;5.40;99.90
23717;DHT22;22094;52.130;5.598;2023-03-01T10:25:34;3.90;99.90
23717;DHT22;22094;52.130;5.598;2023-03-01T10:30:37;5.40;99.90
23717;DHT22;22094;52.130;5.598;2023-03-01T10:35:34;5.70;99.90
23717;DHT22;22094;52.130;5.598;2023-03-01T10:38:07;5.70;99.90
23717;DHT22;22094;52.130;5.598;2023-03-01T10:43:05;5.90;99.90
23717;DHT22;22094;52.130;5.598;2023-03-01T10:48:16;6.00;99.90
23717;DHT22;22094;52.130;5.598;2023-03-01T10:50:47;6.10;99.90
23717;DHT22;22094;52.130;5.598;2023-03-01T10:53:36;6.30;99.90
23717;DHT22;22094;52.130;5.598;2023-03-01T10:58:40;6.30;99.90
23717;DHT22;22094;52.130;5.598;2023-03-01T11:01:25;8.60;99.90
23717;DHT22;22094;52.130;5.598;2023-03-01T11:04:11;5.60;99.90
23717;DHT22;22094;52.130;5.598;2023-03-01T11:09:24;6.40;99.90
23717;DHT22;22094;52.130;5.598;2023-03-01T11:11:57;6.50;99.90
23717;DHT22;22094;52.130;5.598;2023-03-01T11:14:29;6.60;99.90
23717;DHT22;22094;52.130;5.598;2023-03-01T11:19:24;6.40;99.90
23717;DHT22;22094;52.130;5.598;2023-03-01T11:22:14;6.60;99.90
23717;DHT22;22094;52.130;5.598;2023-03-01T11:24:46;6.60;99.90
23717;DHT22;22094;52.130;5.598;2023-03-01T11:27:29;6.90;99.90
23717;DHT22;22094;52.130;5.598;2023-03-01T11:32:28;6.90;99.90
23717;DHT22;22094;52.130;5.598;2023-03-01T11:35:41;7.20;99.90
23717;DHT22;22094;52.130;5.598;2023-03-01T11:40:29;7.00;99.90
23717;DHT22;22094;52.130;5.598;2023-03-01T11:45:24;7.10;99.90
23717;DHT22;22094;52.130;5.598;2023-03-01T11:50:30;7.30;99.90
23717;DHT22;22094;52.130;5.598;2023-03-01T12:11:52;7.60;99.90
23717;DHT22;22094;52.130;5.598;2023-03-01T12:25:48;7.50;99.90
23717;DHT22;22094;52.130;5.598;2023-03-01T12:28:33;7.70;99.90
23717;DHT22;22094;52.130;5.598;2023-03-01T12:45:06;7.80;99.90
23717;DHT22;22094;52.130;5.598;2023-03-01T12:50:17;7.80;99.90
23717;DHT22;22094;52.130;5.598;2023-03-01T12:55:33;7.80;99.90
23717;DHT22;22094;52.130;5.598;2023-03-01T12:58:20;7.90;99.90
23717;DHT22;22094;52.130;5.598;2023-03-01T13:01:19;7.80;99.90
23717;DHT22;22094;52.130;5.598;2023-03-01T13:06:57;8.00;99.90
23717;DHT22;22094;52.130;5.598;2023-03-01T13:19:23;8.00;99.90
23717;DHT22;22094;52.130;5.598;2023-03-01T13:21:51;9.90;99.90
23717;DHT22;22094;52.130;5.598;2023-03-01T13:24:40;8.00;99.90
23717;DHT22;22094;52.130;5.598;2023-03-01T13:29:51;8.20;99.90
23717;DHT22;22094;52.130;5.598;2023-03-01T13:34:51;8.40;99.90
23717;DHT22;22094;52.130;5.598;2023-03-01T13:37:25;8.30;99.90
23717;DHT22;22094;52.130;5.598;2023-03-01T13:42:39;8.20;99.90
23717;DHT22;22094;52.130;5.598;2023-03-01T13:48:02;8.80;99.90
23717;DHT22;22094;52.130;5.598;2023-03-01T13:50:36;8.30;99.90
23717;DHT22;22094;52.130;5.598;2023-03-01T13:53:04;8.20;99.90
23717;DHT22;22094;52.130;5.598;2023-03-01T13:55:48;8.30;99.90
23717;DHT22;22094;52.130;5.598;2023-03-01T14:03:19;8.50;99.90
23717;DHT22;22094;52.130;5.598;2023-03-01T14:11:28;8.20;99.90
23717;DHT22;22094;52.130;5.598;2023-03-01T14:19:56;8.00;99.90
23717;DHT22;22094;52.130;5.598;2023-03-01T14:22:41;7.80;99.90
23717;DHT22;22094;52.130;5.598;2023-03-01T14:25:24;8.80;99.90
23717;DHT22;22094;52.130;5.598;2023-03-01T14:36:12;8.40;99.90
23717;DHT22;22094;52.130;5.598;2023-03-01T14:38:44;8.90;99.90
23717;DHT22;22094;52.130;5.598;2023-03-01T14:41:22;8.40;99.90
23717;DHT22;22094;52.130;5.598;2023-03-01T14:43:59;8.60;99.90
23717;DHT22;22094;52.130;5.598;2023-03-01T14:46:43;8.60;99.90
23717;DHT22;22094;52.130;5.598;2023-03-01T14:49:19;8.70;99.90
23717;DHT22;22094;52.130;5.598;2023-03-01T14:52:06;8.70;99.90
23717;DHT22;22094;52.130;5.598;2023-03-01T14:54:47;8.80;99.90
23717;DHT22;22094;52.130;5.598;2023-03-01T14:57:23;8.80;99.90
23717;DHT22;22094;52.130;5.598;2023-03-01T14:59:51;8.90;99.90
23717;DHT22;22094;52.130;5.598;2023-03-01T15:02:21;8.50;99.90
23717;DHT22;22094;52.130;5.598;2023-03-01T15:05:06;9.30;99.90
23717;DHT22;22094;52.130;5.598;2023-03-01T15:07:39;9.90;99.90
23717;DHT22;22094;52.130;5.598;2023-03-01T15:10:07;10.00;99.90
23717;DHT22;22094;52.130;5.598;2023-03-01T15:12:41;10.00;99.90
23717;DHT22;22094;52.130;5.598;2023-03-01T15:15:41;10.10;99.90
23717;DHT22;22094;52.130;5.598;2023-03-01T15:18:26;9.90;99.90
23717;DHT22;22094;52.130;5.598;2023-03-01T15:20:53;11.70;99.90
23717;DHT22;22094;52.130;5.598;2023-03-01T15:28:23;9.10;99.90
23717;DHT22;22094;52.130;5.598;2023-03-01T15:30:54;8.50;99.90
23717;DHT22;22094;52.130;5.598;2023-03-01T15:33:28;10.40;99.90
23717;DHT22;22094;52.130;5.598;2023-03-01T15:35:56;11.40;99.90
23717;DHT22;22094;52.130;5.598;2023-03-01T15:38:35;10.80;99.90
23717;DHT22;22094;52.130;5.598;2023-03-01T15:43:48;10.20;99.90
23717;DHT22;22094;52.130;5.598;2023-03-01T15:46:20;11.70;99.90
23717;DHT22;22094;52.130;5.598;2023-03-01T15:48:47;7.80;99.90
23717;DHT22;22094;52.130;5.598;2023-03-01T15:51:15;12.80;99.90
23717;DHT22;22094;52.130;5.598;2023-03-01T15:53:42;9.60;99.90
23717;DHT22;22094;52.130;5.598;2023-03-01T15:56:09;10.00;99.90
23717;DHT22;22094;52.130;5.598;2023-03-01T15:58:34;10.70;99.90
23717;DHT22;22094;52.130;5.598;2023-03-01T16:01:00;10.00;99.90
23717;DHT22;22094;52.130;5.598;2023-03-01T16:03:26;10.40;99.90
23717;DHT22;22094;52.130;5.598;2023-03-01T16:08:18;9.50;99.90
23717;DHT22;22094;52.130;5.598;2023-03-01T16:10:45;9.60;99.90
23717;DHT22;22094;52.130;5.598;2023-03-01T16:13:13;9.60;99.90
23717;DHT22;22094;52.130;5.598;2023-03-01T16:15:39;9.90;99.90
23717;DHT22;22094;52.130;5.598;2023-03-01T16:18:05;9.50;99.90
23717;DHT22;22094;52.130;5.598;2023-03-01T16:20:33;9.20;99.90
23717;DHT22;22094;52.130;5.598;2023-03-01T16:23:00;9.30;99.90
23717;DHT22;22094;52.130;5.598;2023-03-01T16:25:26;9.20;99.90
23717;DHT22;22094;52.130;5.598;2023-03-01T16:27:52;11.10;99.90
23717;DHT22;22094;52.130;5.598;2023-03-01T16:30:22;8.80;99.90
23717;DHT22;22094;52.130;5.598;2023-03-01T16:32:49;8.60;99.90
23717;DHT22;22094;52.130;5.598;2023-03-01T16:35:17;8.00;99.90
23717;DHT22;22094;52.130;5.598;2023-03-01T16:37:43;7.90;99.90
23717;DHT22;22094;52.130;5.598;2023-03-01T16:40:24;7.30;99.90
23717;DHT22;22094;52.130;5.598;2023-03-01T16:42:51;7.20;99.90
23717;DHT22;22094;52.130;5.598;2023-03-01T16:45:18;6.90;99.90
23717;DHT22;22094;52.130;5.598;2023-03-01T16:47:43;6.40;99.90
23717;DHT22;22094;52.130;5.598;2023-03-01T16:50:10;6.50;99.90
23717;DHT22;22094;52.130;5.598;2023-03-01T16:52:36;6.50;99.90
23717;DHT22;22094;52.130;5.598;2023-03-01T16:55:03;6.40;99.90
23717;DHT22;22094;52.130;5.598;2023-03-01T16:57:30;6.30;99.90
23717;DHT22;22094;52.130;5.598;2023-03-01T16:59:55;6.30;99.90
23717;DHT22;22094;52.130;5.598;2023-03-01T17:02:22;6.10;99.90
23717;DHT22;22094;52.130;5.598;2023-03-01T17:04:54;6.00;99.90
23717;DHT22;22094;52.130;5.598;2023-03-01T17:07:21;5.90;99.90
23717;DHT22;22094;52.130;5.598;2023-03-01T17:09:46;5.80;99.90
23717;DHT22;22094;52.130;5.598;2023-03-01T17:12:13;5.70;99.90
23717;DHT22;22094;52.130;5.598;2023-03-01T17:14:39;5.60;99.90
23717;DHT22;22094;52.130;5.598;2023-03-01T17:17:07;5.50;99.90
23717;DHT22;22094;52.130;5.598;2023-03-01T17:19:33;5.40;99.90
23717;DHT22;22094;52.130;5.598;2023-03-01T17:22:03;5.40;99.90
23717;DHT22;22094;52.130;5.598;2023-03-01T17:24:32;5.30;99.90
23717;DHT22;22094;52.130;5.598;2023-03-01T17:26:58;5.30;99.90
23717;DHT22;22094;52.130;5.598;2023-03-01T17:29:24;5.20;99.90
23717;DHT22;22094;52.130;5.598;2023-03-01T17:31:49;5.30;99.90
23717;DHT22;22094;52.130;5.598;2023-03-01T17:34:15;5.00;99.90
23717;DHT22;22094;52.130;5.598;2023-03-01T17:36:40;4.90;99.90
23717;DHT22;22094;52.130;5.598;2023-03-01T17:39:09;4.80;99.90
23717;DHT22;22094;52.130;5.598;2023-03-01T17:41:35;4.70;99.90
23717;DHT22;22094;52.130;5.598;2023-03-01T17:44:01;4.60;99.90
23717;DHT22;22094;52.130;5.598;2023-03-01T17:46:27;4.60;99.90
23717;DHT22;22094;52.130;5.598;2023-03-01T17:48:53;4.60;99.90
23717;DHT22;22094;52.130;5.598;2023-03-01T17:51:18;4.50;99.90
23717;DHT22;22094;52.130;5.598;2023-03-01T17:53:44;4.50;99.90
23717;DHT22;22094;52.130;5.598;2023-03-01T17:56:10;4.40;99.90
23717;DHT22;22094;52.130;5.598;2023-03-01T17:58:36;4.30;99.90
23717;DHT22;22094;52.130;5.598;2023-03-01T18:01:13;4.30;99.90
23717;DHT22;22094;52.130;5.598;2023-03-01T18:03:40;4.20;99.90
23717;DHT22;22094;52.130;5.598;2023-03-01T18:06:17;4.10;99.90
23717;DHT22;22094;52.130;5.598;2023-03-01T18:08:43;4.10;99.90
23717;DHT22;22094;52.130;5.598;2023-03-01T18:11:11;4.10;99.90
23717;DHT22;22094;52.130;5.598;2023-03-01T18:13:37;4.00;99.90
23717;DHT22;22094;52.130;5.598;2023-03-01T18:16:05;4.00;99.90
23717;DHT22;22094;52.130;5.598;2023-03-01T18:18:31;3.90;99.90
23717;DHT22;22094;52.130;5.598;2023-03-01T18:20:58;3.90;99.90
23717;DHT22;22094;52.130;5.598;2023-03-01T18:23:24;3.90;99.90
23717;DHT22;22094;52.130;5.598;2023-03-01T18:25:50;3.90;99.90
23717;DHT22;22094;52.130;5.598;2023-03-01T18:28:18;3.80;99.90
23717;DHT22;22094;52.130;5.598;2023-03-01T18:30:43;3.70;99.90
23717;DHT22;22094;52.130;5.598;2023-03-01T18:33:09;3.60;99.90
23717;DHT22;22094;52.130;5.598;2023-03-01T18:35:36;3.60;99.90
23717;DHT22;22094;52.130;5.598;2023-03-01T18:38:02;3.50;99.90
23717;DHT22;22094;52.130;5.598;2023-03-01T18:40:28;3.40;99.90